Terminal Aerodrome Forecast
Issued by NWS

Home | Current Version | Previous Version | Text Only | Print | Product List | Glossary Off
Versions: 1 2 3 4 5 6 7 8 9 10 11 12 13 14 15 16 17

000
FTUS43 KAPX 271740
TAFTVC
TAF
KTVC 271740Z 2718/2818 02007KT P6SM FEW050 SCT150
     FM280000 18003KT P6SM SCT200
     FM280600 VRB03KT P6SM BKN100
     FM281200 VRB03KT P6SM -SHRA SCT050 BKN090
     FM281600 24006KT P6SM -SHRA OVC040=

USA.gov is the U.S. government's official web portal to all federal, state and local government web resources and services.